Syracuse Hancock International Airport
KSYR : now visible

Airfield :











YOU CAN JOIN US ON...

 
LOGIN :

Register | Disclaimer

   EN    FR    IT 

 









Legend :    VFR   Marginal VFR   IFR   Intensive IFR   Very Intensive IFR
Visi :
Ceiling :
>= 8 km
>= 3000ft
5 to 8 km
1000 to 3000 ft
1500m to 5 km
500 to 1000 ft
800 to 1500m
200 to 500 ft
< 800m
< 200 ft
Symbols :   Thunderstorms  Fog  Heavy snow  Heavy precipitations  Wind > 20 kt







- Airport Elevation : 421 ft
- IATA code : SYR


KSYR - Syracuse Hancock International

CURRENT METAR :
  • 190954Z 11004KT 10SM FEW010 SCT050 SCT090 BKN150 BKN250 19/17 A2992 RMK AO2 SLP125 T01890172 $

EXPIRED METARs :
  • 190854Z 00000KT 10SM SCT050 SCT085 BKN140 BKN250 19/17 A2992 RMK AO2 LTG DSNT NE TSE19 SLP125 LTG DSNT N-E T01940172 53009 $
  • 190825Z VRB03KT 10SM SCT075 BKN090 BKN130 20/17 A2990 RMK AO2 LTG DSNT N TSE19 T02000172 $
  • 190754Z 10003KT 10SM TS FEW050CB SCT075 SCT090 BKN150 19/17 A2988 RMK AO2 LTG DSNT NE TSB27 SLP112 OCNLLTGICCG N-E TS N-E MOV E T01940172 $
  • 190731Z 11005KT 10SM TS SCT050CB SCT080 SCT100 19/17 A2987 RMK AO2 LTG DSNT N AND NW TSB27 OCNLLTGICCC W-N TS W-N MOV E T01890172 $

TAF KSYR
Valid from the 19 at 09:00 until the 20 at 06:00 UTC


190859Z 1909/2006 VRB04KT P6SM SCT050 BKN100
FM191100 22006KT P6SM BKN035
FM191500 25010KT P6SM BKN025
FM192200 29007KT P6SM SCT035
No reported NOTAMs for that airfield.



MET'MAP, your aeronautical weather chart ! - Copyright ORBIFLY December 2007 - Disclaimer

ORBIFLY MET'MAP TEAM :

Programming & Development : Alexandra Zaïnal
Concept & Development : Baudouin d'Aumeries
Co-Development & Prog : Marc-Olivier Méhu
Technical & hardware support : Manuel Goepfert

Contact : metmap@orbifly.com




SOURCES & CREDITS :

   NOAA       Earth
Advisory